National Weather Service Raw Text Product

Displaying AFOS PIL: TAFALO Received: 2018-02-09 17:38 UTC


704 
FTUS43 KDMX 091738
TAFALO
TAF
KALO 091738Z 0918/1018 01010KT P6SM BKN220
     FM100200 35006KT P6SM BKN070
     FM101500 34005KT P6SM SCT230=